createdAt,value
2022-11-29T00:03:34.872Z,18.98
2022-11-29T00:06:24.542Z,18.48
2022-11-29T00:09:12.999Z,18.48
2022-11-29T00:12:12.345Z,19.15
2022-11-29T00:14:59.314Z,19.45
2022-11-29T00:17:46.397Z,21.52
2022-11-29T00:20:34.359Z,20.27
2022-11-29T00:23:21.397Z,17.98
2022-11-29T00:26:08.780Z,19.50
2022-11-29T00:28:55.918Z,18.30
2022-11-29T00:31:43.903Z,16.92
2022-11-29T00:34:30.959Z,17.88
2022-11-29T00:37:17.986Z,18.65
2022-11-29T00:40:07.632Z,18.13
2022-11-29T00:42:54.670Z,17.70
2022-11-29T00:45:41.767Z,19.13
2022-11-29T00:48:29.052Z,19.00
2022-11-29T00:51:16.081Z,18.30
2022-11-29T00:54:03.101Z,17.73
2022-11-29T00:56:50.089Z,19.95
2022-11-29T00:59:37.054Z,19.60
2022-11-29T01:02:24.149Z,18.67
2022-11-29T01:05:11.168Z,17.65
2022-11-29T01:07:58.286Z,19.90
2022-11-29T01:10:45.380Z,18.70
2022-11-29T01:13:32.760Z,19.52
2022-11-29T01:16:19.879Z,19.50
2022-11-29T01:19:07.472Z,19.67
2022-11-29T01:21:54.480Z,19.88
2022-11-29T01:24:41.652Z,20.42
2022-11-29T01:27:29.351Z,20.13
2022-11-29T01:30:16.444Z,19.58
2022-11-29T01:33:03.570Z,19.00
2022-11-29T01:35:52.262Z,19.35
2022-11-29T01:38:39.583Z,20.55
2022-11-29T01:41:29.380Z,20.15
2022-11-29T01:44:16.332Z,19.45
2022-11-29T01:47:03.498Z,19.27
2022-11-29T01:49:50.841Z,20.13
2022-11-29T01:52:38.491Z,20.75
2022-11-29T01:55:25.978Z,20.38
2022-11-29T01:58:15.239Z,20.20
2022-11-29T02:01:02.479Z,20.88
2022-11-29T02:03:49.810Z,19.85
2022-11-29T02:06:37.544Z,19.67
2022-11-29T02:09:24.658Z,20.05
2022-11-29T02:12:43.455Z,19.38
2022-11-29T02:15:55.060Z,20.00
2022-11-29T02:18:57.859Z,19.50
2022-11-29T02:22:09.162Z,19.80
2022-11-29T02:25:17.811Z,18.85
2022-11-29T02:28:37.088Z,19.73
2022-11-29T02:31:56.438Z,20.83
2022-11-29T02:34:58.395Z,20.13
2022-11-29T02:38:00.578Z,20.80
2022-11-29T02:41:03.718Z,19.85
2022-11-29T02:44:09.384Z,20.15
2022-11-29T02:47:25.971Z,21.35
2022-11-29T02:50:39.109Z,19.95
2022-11-29T02:53:50.835Z,20.80
2022-11-29T02:56:57.154Z,20.85
2022-11-29T02:59:57.313Z,19.23
2022-11-29T03:05:54.880Z,19.48
2022-11-29T03:09:08.071Z,21.05
2022-11-29T03:12:25.918Z,20.55
2022-11-29T03:15:13.004Z,19.58
2022-11-29T03:18:02.892Z,21.05
2022-11-29T03:20:53.000Z,21.15
2022-11-29T03:23:51.149Z,22.35
2022-11-29T03:27:01.673Z,21.83
2022-11-29T03:29:56.734Z,19.80
2022-11-29T03:32:59.046Z,20.10
2022-11-29T03:36:04.770Z,20.75
2022-11-29T03:38:56.908Z,20.02
2022-11-29T03:41:52.350Z,20.70
2022-11-29T03:44:53.857Z,20.48
2022-11-29T03:47:54.969Z,21.55
2022-11-29T03:50:48.572Z,21.77
2022-11-29T03:53:57.471Z,20.33
2022-11-29T03:56:44.896Z,20.13
2022-11-29T03:59:47.472Z,21.30
2022-11-29T04:02:52.857Z,21.38
2022-11-29T04:06:01.611Z,20.52
2022-11-29T04:09:21.681Z,21.20
2022-11-29T04:12:20.608Z,21.38
2022-11-29T04:15:32.018Z,20.73
2022-11-29T04:18:52.649Z,20.15
2022-11-29T04:22:24.585Z,19.73
2022-11-29T04:25:43.730Z,20.30
2022-11-29T04:28:55.534Z,21.52
2022-11-29T04:32:11.749Z,19.20
2022-11-29T04:35:23.219Z,20.00
2022-11-29T04:38:35.044Z,21.90
2022-11-29T04:41:37.363Z,21.42
2022-11-29T04:45:09.281Z,21.85
2022-11-29T04:48:11.553Z,20.92
2022-11-29T04:51:17.214Z,21.50
2022-11-29T04:54:19.622Z,19.60
2022-11-29T04:57:22.867Z,20.45
2022-11-29T05:00:14.125Z,21.75
2022-11-29T05:03:23.689Z,21.73
2022-11-29T05:06:16.368Z,21.08
2022-11-29T05:09:09.428Z,21.60
2022-11-29T05:12:15.059Z,22.40
2022-11-29T05:15:13.969Z,21.52
2022-11-29T05:18:26.796Z,20.67
2022-11-29T05:21:25.939Z,21.38
2022-11-29T05:24:21.791Z,22.48
2022-11-29T05:27:41.860Z,20.15
2022-11-29T05:30:59.133Z,20.15
2022-11-29T05:34:13.398Z,21.88
2022-11-29T05:37:12.625Z,20.52
2022-11-29T05:40:33.507Z,21.00
2022-11-29T05:43:48.677Z,20.95
2022-11-29T05:46:35.793Z,20.85
2022-11-29T05:49:55.306Z,21.23
2022-11-29T05:53:12.235Z,20.88
2022-11-29T05:56:16.888Z,20.25
2022-11-29T05:59:18.014Z,20.70
2022-11-29T06:02:11.728Z,20.00
2022-11-29T06:05:24.836Z,21.58
2022-11-29T06:08:52.319Z,19.52
2022-11-29T06:11:45.533Z,19.80
2022-11-29T06:14:57.278Z,20.42
2022-11-29T06:21:52.928Z,20.98
2022-11-29T06:25:17.958Z,21.67
2022-11-29T06:28:14.140Z,19.95
2022-11-29T06:31:29.036Z,20.38
2022-11-29T06:34:29.130Z,20.77
2022-11-29T06:37:28.928Z,20.45
2022-11-29T06:40:16.923Z,20.23
2022-11-29T06:43:04.206Z,20.10
2022-11-29T06:46:11.398Z,18.75
2022-11-29T06:49:19.578Z,20.13
2022-11-29T06:52:21.448Z,18.60
2022-11-29T06:55:20.513Z,19.80
2022-11-29T06:58:20.730Z,20.00
2022-11-29T07:04:07.198Z,18.27
2022-11-29T07:06:54.513Z,18.50
2022-11-29T07:09:43.365Z,19.33
2022-11-29T07:12:30.747Z,18.63
2022-11-29T07:15:22.040Z,18.92
2022-11-29T07:18:12.778Z,19.85
2022-11-29T07:21:09.425Z,19.33
2022-11-29T07:24:15.048Z,19.10
2022-11-29T07:27:21.399Z,18.70
2022-11-29T07:30:21.561Z,18.52
2022-11-29T07:33:08.568Z,19.73
2022-11-29T07:36:00.278Z,19.02
2022-11-29T07:39:12.785Z,18.73
2022-11-29T07:42:16.170Z,18.98
2022-11-29T07:45:20.131Z,18.50
2022-11-29T07:48:07.176Z,18.40
2022-11-29T07:50:55.752Z,18.15
2022-11-29T07:53:44.761Z,19.08
2022-11-29T07:56:31.789Z,19.30
2022-11-29T07:59:19.002Z,18.23
2022-11-29T08:02:11.522Z,18.85
2022-11-29T08:04:59.408Z,18.05
2022-11-29T08:07:47.914Z,18.23
2022-11-29T08:10:35.721Z,19.48
2022-11-29T08:13:22.750Z,18.00
2022-11-29T08:16:15.330Z,18.83
2022-11-29T08:19:02.522Z,18.73
2022-11-29T08:21:51.266Z,18.52
2022-11-29T08:24:38.408Z,17.27
2022-11-29T08:27:25.729Z,19.05
2022-11-29T08:30:13.207Z,20.05
2022-11-29T08:33:00.247Z,17.60
2022-11-29T08:35:47.334Z,17.98
2022-11-29T08:38:34.456Z,18.20
2022-11-29T08:41:21.529Z,18.27
2022-11-29T08:44:09.318Z,18.02
2022-11-29T08:47:15.010Z,17.52
2022-11-29T08:50:06.508Z,17.58
2022-11-29T08:53:12.490Z,17.65
2022-11-29T08:56:00.504Z,18.85
2022-11-29T08:58:47.626Z,16.90
2022-11-29T09:01:34.752Z,17.60
2022-11-29T09:04:22.138Z,17.40
2022-11-29T09:07:09.199Z,18.25
2022-11-29T09:09:56.436Z,17.70
2022-11-29T09:12:44.594Z,18.63
2022-11-29T09:15:31.745Z,17.10
2022-11-29T09:18:18.858Z,18.10
2022-11-29T09:21:08.255Z,18.55
2022-11-29T09:23:59.389Z,17.30
2022-11-29T09:26:48.648Z,16.33
2022-11-29T09:29:38.292Z,18.53
2022-11-29T09:32:25.439Z,18.60
2022-11-29T09:35:12.858Z,17.35
2022-11-29T09:38:00.554Z,16.92
2022-11-29T09:40:55.707Z,17.15
2022-11-29T09:43:45.883Z,17.00
2022-11-29T09:50:02.078Z,16.42
2022-11-29T09:53:17.852Z,16.55
2022-11-29T09:56:12.524Z,17.05
2022-11-29T09:59:05.450Z,18.00
2022-11-29T10:02:03.610Z,17.58
2022-11-29T10:04:56.827Z,16.77
2022-11-29T10:07:48.957Z,17.25
2022-11-29T10:10:47.864Z,16.80
2022-11-29T10:13:36.179Z,17.75
2022-11-29T10:16:27.683Z,17.38
2022-11-29T10:19:29.725Z,16.73
2022-11-29T10:22:31.883Z,16.95
2022-11-29T10:25:42.562Z,17.73
2022-11-29T10:28:34.729Z,17.17
2022-11-29T10:31:27.850Z,17.45
2022-11-29T10:34:20.992Z,16.95
2022-11-29T10:37:13.651Z,16.20
2022-11-29T10:40:09.784Z,16.83
2022-11-29T10:42:58.729Z,17.05
2022-11-29T10:45:53.687Z,17.73
2022-11-29T10:48:41.071Z,18.60
2022-11-29T10:51:29.326Z,18.42
2022-11-29T10:54:22.111Z,17.95
2022-11-29T10:57:14.719Z,17.70
2022-11-29T11:00:09.905Z,18.65
2022-11-29T11:03:36.314Z,17.52
2022-11-29T11:06:43.319Z,17.05
2022-11-29T11:09:33.719Z,18.23
2022-11-29T11:12:24.489Z,17.92
2022-11-29T11:15:36.440Z,17.23
2022-11-29T11:18:28.744Z,17.40
2022-11-29T11:21:18.798Z,18.55
2022-11-29T11:24:06.095Z,18.45
2022-11-29T11:26:53.235Z,17.70
2022-11-29T11:29:44.313Z,16.92
2022-11-29T11:32:32.556Z,16.92
2022-11-29T11:35:24.400Z,16.83
2022-11-29T11:38:17.973Z,17.90
2022-11-29T11:41:19.269Z,18.52
2022-11-29T11:44:46.501Z,18.13
2022-11-29T11:47:37.048Z,18.25
2022-11-29T11:50:30.711Z,17.10
2022-11-29T11:53:18.368Z,16.95
2022-11-29T11:56:13.106Z,17.10
2022-11-29T11:59:00.442Z,16.50
2022-11-29T12:01:49.664Z,16.02
2022-11-29T12:04:37.726Z,16.83
2022-11-29T12:08:06.243Z,17.30
2022-11-29T12:10:42.879Z,16.88
2022-11-29T12:13:33.115Z,16.92
2022-11-29T12:19:24.090Z,15.95
2022-11-29T12:22:20.224Z,16.63
2022-11-29T12:25:15.268Z,16.10
2022-11-29T12:28:02.451Z,16.52
2022-11-29T12:31:15.398Z,16.38
2022-11-29T12:34:44.089Z,16.05
2022-11-29T12:38:12.282Z,15.93
2022-11-29T12:41:26.676Z,16.17
2022-11-29T12:44:32.636Z,16.63
2022-11-29T12:47:51.716Z,16.58
2022-11-29T12:50:59.752Z,16.42
2022-11-29T12:54:01.727Z,15.95
2022-11-29T12:57:02.323Z,16.05
2022-11-29T13:00:01.690Z,17.08
2022-11-29T13:03:07.144Z,15.20
2022-11-29T13:06:21.567Z,15.88
2022-11-29T13:09:37.360Z,16.63
2022-11-29T13:12:35.135Z,16.40
2022-11-29T13:15:30.212Z,17.00
2022-11-29T13:18:31.879Z,16.60
2022-11-29T13:21:57.539Z,16.77
2022-11-29T13:25:14.392Z,16.38
2022-11-29T13:28:10.390Z,16.92
2022-11-29T13:31:02.848Z,16.33
2022-11-29T13:33:49.897Z,17.17
2022-11-29T13:36:44.487Z,16.58
2022-11-29T13:39:36.681Z,17.23
2022-11-29T13:42:51.013Z,15.52
2022-11-29T13:45:50.890Z,16.13
2022-11-29T13:48:44.173Z,16.48
2022-11-29T13:51:34.131Z,16.20
2022-11-29T13:54:32.790Z,16.73
2022-11-29T13:57:19.835Z,16.67
2022-11-29T14:00:07.693Z,17.98
2022-11-29T14:02:56.795Z,16.70
2022-11-29T14:05:45.501Z,15.48
2022-11-29T14:12:29.071Z,17.60
2022-11-29T14:15:31.318Z,16.52
2022-11-29T14:18:36.889Z,16.67
2022-11-29T14:21:23.893Z,17.17
2022-11-29T14:24:37.089Z,18.15
2022-11-29T14:27:24.111Z,16.80
2022-11-29T14:30:48.111Z,17.52
2022-11-29T14:33:47.177Z,16.95
2022-11-29T14:37:04.838Z,16.85
2022-11-29T14:39:55.175Z,16.42
2022-11-29T14:42:48.186Z,17.65
2022-11-29T14:45:35.557Z,16.73
2022-11-29T14:48:31.992Z,17.08
2022-11-29T14:51:20.097Z,16.83
2022-11-29T14:54:18.494Z,16.95
2022-11-29T15:00:01.885Z,16.63
2022-11-29T15:03:08.030Z,17.75
2022-11-29T15:06:11.579Z,17.27
2022-11-29T15:09:06.194Z,17.77
2022-11-29T15:11:59.281Z,18.00
2022-11-29T15:14:54.402Z,16.95
2022-11-29T15:18:32.313Z,17.25
2022-11-29T15:21:50.862Z,16.77
2022-11-29T15:24:57.130Z,18.08
2022-11-29T15:27:55.196Z,16.13
2022-11-29T15:30:42.983Z,16.05
2022-11-29T15:33:30.356Z,16.35
2022-11-29T15:36:20.068Z,16.90
2022-11-29T15:39:25.275Z,15.95
2022-11-29T15:42:18.280Z,16.30
2022-11-29T15:45:26.336Z,16.67
2022-11-29T15:48:28.269Z,15.60
2022-11-29T15:51:29.004Z,15.75
2022-11-29T15:54:26.899Z,16.40
2022-11-29T15:57:21.106Z,16.23
2022-11-29T16:00:15.586Z,17.40
2022-11-29T16:03:05.587Z,16.33
2022-11-29T16:06:02.262Z,16.98
2022-11-29T16:08:50.235Z,16.88
2022-11-29T16:11:38.206Z,16.55
2022-11-29T16:14:28.488Z,16.65
2022-11-29T16:20:23.792Z,16.75
2022-11-29T16:23:14.041Z,15.23
2022-11-29T16:29:01.000Z,15.35
2022-11-29T16:31:48.437Z,15.52
2022-11-29T16:34:35.674Z,16.55
2022-11-29T16:37:28.964Z,15.75
2022-11-29T16:40:28.486Z,16.70
2022-11-29T16:43:44.694Z,16.27
2022-11-29T16:46:40.085Z,16.08
2022-11-29T16:49:33.760Z,16.75
2022-11-29T16:52:27.642Z,17.27
2022-11-29T16:55:17.600Z,15.68
2022-11-29T16:58:06.543Z,15.35
2022-11-29T17:00:54.038Z,14.50
2022-11-29T17:03:41.169Z,15.27
2022-11-29T17:06:30.030Z,15.15
2022-11-29T17:09:24.510Z,14.98
2022-11-29T17:12:13.586Z,15.43
2022-11-29T17:15:01.768Z,15.45
2022-11-29T17:17:50.516Z,14.10
2022-11-29T17:20:38.171Z,15.05
2022-11-29T17:23:25.798Z,14.73
2022-11-29T17:26:15.700Z,14.38
2022-11-29T17:29:03.052Z,14.63
2022-11-29T17:31:56.001Z,15.85
2022-11-29T17:34:43.816Z,15.00
2022-11-29T17:37:32.250Z,14.07
2022-11-29T17:40:20.381Z,13.10
2022-11-29T17:43:07.847Z,15.05
2022-11-29T17:45:55.286Z,13.90
2022-11-29T17:48:43.584Z,14.10
2022-11-29T17:54:39.375Z,14.40
2022-11-29T17:57:26.894Z,15.60
2022-11-29T18:00:15.757Z,14.25
2022-11-29T18:03:03.474Z,13.93
2022-11-29T18:05:52.029Z,13.80
2022-11-29T18:08:40.560Z,14.93
2022-11-29T18:11:30.159Z,13.82
2022-11-29T18:14:28.653Z,14.90
2022-11-29T18:17:16.520Z,14.40
2022-11-29T18:20:05.188Z,14.80
2022-11-29T18:22:53.913Z,14.50
2022-11-29T18:25:41.871Z,14.57
2022-11-29T18:28:35.614Z,14.13
2022-11-29T18:31:28.923Z,14.88
2022-11-29T18:34:18.138Z,14.43
2022-11-29T18:37:07.941Z,14.13
2022-11-29T18:39:59.049Z,15.05
2022-11-29T18:42:46.861Z,15.90
2022-11-29T18:45:38.328Z,14.93
2022-11-29T18:48:25.892Z,15.95
2022-11-29T18:51:19.107Z,16.48
2022-11-29T18:54:07.282Z,15.13
2022-11-29T18:56:55.643Z,14.85
2022-11-29T18:59:43.699Z,16.15
2022-11-29T19:02:31.549Z,15.70
2022-11-29T19:05:19.695Z,16.92
2022-11-29T19:08:10.209Z,16.55
2022-11-29T19:10:58.193Z,16.58
2022-11-29T19:13:47.470Z,16.40
2022-11-29T19:16:36.887Z,18.57
2022-11-29T19:19:25.018Z,18.42
2022-11-29T19:22:13.670Z,18.02
2022-11-29T19:25:02.644Z,19.05
2022-11-29T19:27:50.488Z,17.83
2022-11-29T19:30:38.765Z,17.88
2022-11-29T19:33:31.292Z,18.75
2022-11-29T19:36:20.891Z,19.23
2022-11-29T19:39:09.795Z,19.58
2022-11-29T19:41:57.964Z,19.38
2022-11-29T19:45:18.208Z,19.00
2022-11-29T19:47:57.196Z,18.48
2022-11-29T19:50:45.286Z,20.40
2022-11-29T19:53:34.483Z,19.30
2022-11-29T19:56:23.838Z,18.25
2022-11-29T19:59:11.898Z,18.30
2022-11-29T20:02:00.384Z,19.42
2022-11-29T20:04:49.875Z,18.25
2022-11-29T20:07:38.854Z,18.85
2022-11-29T20:10:28.225Z,19.50
2022-11-29T20:13:16.080Z,19.73
2022-11-29T20:16:13.304Z,20.38
2022-11-29T20:19:01.982Z,18.38
2022-11-29T20:21:50.250Z,18.80
2022-11-29T20:24:45.117Z,18.58
2022-11-29T20:27:33.582Z,19.88
2022-11-29T20:30:21.502Z,19.38
2022-11-29T20:33:15.683Z,18.92
2022-11-29T20:36:32.081Z,18.60
2022-11-29T20:39:38.671Z,19.70
2022-11-29T20:42:54.867Z,20.70
2022-11-29T20:45:43.462Z,20.45
2022-11-29T20:48:33.000Z,19.05
2022-11-29T20:51:27.880Z,19.63
2022-11-29T20:54:18.022Z,19.35
2022-11-29T20:57:07.217Z,19.45
2022-11-29T20:59:55.832Z,20.23
2022-11-29T21:02:43.927Z,20.58
2022-11-29T21:05:31.519Z,19.52
2022-11-29T21:08:22.084Z,20.20
2022-11-29T21:11:10.587Z,19.75
2022-11-29T21:13:58.132Z,19.02
2022-11-29T21:16:45.442Z,19.67
2022-11-29T21:19:33.237Z,20.27
2022-11-29T21:22:48.843Z,19.58
2022-11-29T21:25:49.345Z,19.15
2022-11-29T21:28:41.816Z,20.30
2022-11-29T21:31:29.326Z,20.30
2022-11-29T21:34:16.590Z,19.15
2022-11-29T21:37:05.502Z,19.80
2022-11-29T21:39:53.470Z,20.65
2022-11-29T21:42:40.822Z,20.40
2022-11-29T21:45:28.178Z,19.40
2022-11-29T21:48:33.877Z,20.25
2022-11-29T21:51:20.901Z,19.75
2022-11-29T21:54:07.987Z,19.20
2022-11-29T21:56:55.797Z,20.65
2022-11-29T21:59:42.817Z,21.42
2022-11-29T22:02:29.916Z,20.45
2022-11-29T22:05:17.042Z,19.77
2022-11-29T22:08:04.772Z,19.88
2022-11-29T22:11:00.660Z,21.23
2022-11-29T22:14:06.600Z,19.55
2022-11-29T22:16:54.757Z,19.55
2022-11-29T22:19:42.592Z,20.15
2022-11-29T22:22:30.281Z,21.52
2022-11-29T22:25:17.478Z,20.77
2022-11-29T22:28:04.580Z,20.55
2022-11-29T22:30:51.575Z,19.70
2022-11-29T22:33:38.939Z,19.70
2022-11-29T22:36:26.473Z,19.67
2022-11-29T22:39:14.296Z,19.83
2022-11-29T22:42:01.313Z,21.35
2022-11-29T22:44:48.575Z,19.08
2022-11-29T22:47:35.722Z,20.23
2022-11-29T22:50:22.786Z,20.17
2022-11-29T22:53:09.800Z,20.58
2022-11-29T22:56:01.251Z,20.45
2022-11-29T22:58:48.579Z,19.92
2022-11-29T23:01:38.001Z,19.75
2022-11-29T23:04:25.027Z,19.40
2022-11-29T23:07:12.174Z,20.83
2022-11-29T23:09:43.386Z,20.67
2022-11-29T23:12:30.450Z,19.08
2022-11-29T23:15:17.630Z,20.75
2022-11-29T23:18:04.781Z,20.05
2022-11-29T23:20:51.851Z,18.95
2022-11-29T23:23:39.209Z,18.98
2022-11-29T23:26:28.650Z,18.65
2022-11-29T23:29:18.332Z,17.67
2022-11-29T23:32:05.364Z,19.40
2022-11-29T23:34:52.400Z,20.67
2022-11-29T23:37:39.401Z,20.17
2022-11-29T23:40:26.496Z,19.48
2022-11-29T23:43:13.502Z,20.20
2022-11-29T23:46:05.322Z,20.45
2022-11-29T23:48:52.861Z,20.10
2022-11-29T23:51:39.833Z,19.50
2022-11-29T23:54:26.834Z,19.83
2022-11-29T23:57:13.835Z,19.73
